createdAt,value
2023-03-04T00:02:23.399Z,-2.28
2023-03-04T00:04:50.267Z,-2.29
2023-03-04T00:07:18.854Z,-2.34
2023-03-04T00:09:46.093Z,-2.19
2023-03-04T00:12:13.236Z,-2.06
2023-03-04T00:14:40.305Z,-2.06
2023-03-04T00:17:07.138Z,-1.95
2023-03-04T00:19:35.007Z,-1.93
2023-03-04T00:22:02.185Z,-1.89
2023-03-04T00:24:28.812Z,-1.80
2023-03-04T00:26:55.407Z,-1.71
2023-03-04T00:29:22.215Z,-1.67
2023-03-04T00:31:48.922Z,-1.61
2023-03-04T00:34:15.527Z,-1.60
2023-03-04T00:36:44.659Z,-1.52
2023-03-04T00:39:12.441Z,-1.49
2023-03-04T00:41:39.668Z,-1.51
2023-03-04T00:44:06.589Z,-1.53
2023-03-04T00:46:33.458Z,-1.54
2023-03-04T00:49:00.094Z,-1.57
2023-03-04T00:51:26.808Z,-1.51
2023-03-04T00:53:53.480Z,-1.54
2023-03-04T00:56:20.089Z,-1.49
2023-03-04T00:58:46.817Z,-1.43
2023-03-04T01:01:13.419Z,-1.36
2023-03-04T01:03:41.500Z,-1.29
2023-03-04T01:06:08.429Z,-1.26
2023-03-04T01:08:35.023Z,-1.24
2023-03-04T01:11:01.613Z,-1.29
2023-03-04T01:13:28.255Z,-1.26
2023-03-04T01:15:55.957Z,-1.17
2023-03-04T01:18:22.596Z,-1.11
2023-03-04T01:20:49.200Z,-1.09
2023-03-04T01:23:15.902Z,-1.10
2023-03-04T01:25:42.827Z,-1.20
2023-03-04T01:28:09.481Z,-1.13
2023-03-04T01:30:36.104Z,-0.97
2023-03-04T01:33:02.775Z,-0.93
2023-03-04T01:35:29.433Z,-0.81
2023-03-04T01:37:56.943Z,-0.74
2023-03-04T01:40:23.922Z,-0.73
2023-03-04T01:42:51.021Z,-0.67
2023-03-04T01:45:19.948Z,-0.65
2023-03-04T01:47:49.165Z,-0.60
2023-03-04T01:50:31.543Z,-0.53
2023-03-04T01:52:58.157Z,-0.49
2023-03-04T01:55:25.127Z,-0.46
2023-03-04T01:57:53.053Z,-0.43
2023-03-04T02:00:27.016Z,-0.37
2023-03-04T02:03:11.355Z,-0.40
2023-03-04T02:05:41.273Z,-0.33
2023-03-04T02:08:09.273Z,-0.30
2023-03-04T02:10:37.245Z,-0.24
2023-03-04T02:13:06.249Z,-0.24
2023-03-04T02:15:33.549Z,-0.22
2023-03-04T02:18:01.194Z,-0.18
2023-03-04T02:21:08.213Z,-0.17
2023-03-04T02:24:10.406Z,-0.15
2023-03-04T02:26:39.786Z,-0.13
2023-03-04T02:29:06.451Z,-0.05
2023-03-04T02:31:39.888Z,-0.05
2023-03-04T02:34:12.601Z,-0.05
2023-03-04T02:36:40.349Z,0.02
2023-03-04T02:39:13.090Z,0.02
2023-03-04T02:41:40.035Z,0.02
2023-03-04T02:44:20.964Z,0.00
2023-03-04T02:46:48.193Z,0.02
2023-03-04T02:49:15.099Z,0.02
2023-03-04T02:51:41.687Z,0.03
2023-03-04T02:54:16.057Z,0.04
2023-03-04T02:56:51.837Z,0.05
2023-03-04T02:59:19.770Z,0.05
2023-03-04T03:01:46.543Z,0.03
2023-03-04T03:04:14.128Z,0.06
2023-03-04T03:06:41.994Z,0.01
2023-03-04T03:09:09.400Z,0.02
2023-03-04T03:11:36.530Z,-0.01
2023-03-04T03:14:04.108Z,-0.06
2023-03-04T03:16:31.140Z,-0.04
2023-03-04T03:18:57.889Z,0.01
2023-03-04T03:21:24.719Z,-0.02
2023-03-04T03:23:51.321Z,0.02
2023-03-04T03:26:19.841Z,0.02
2023-03-04T03:28:46.571Z,-0.05
2023-03-04T03:31:13.540Z,-0.04
2023-03-04T03:33:40.300Z,-0.02
2023-03-04T03:36:08.215Z,-0.02
2023-03-04T03:38:35.295Z,-0.02
2023-03-04T03:41:02.010Z,-0.05
2023-03-04T03:43:28.792Z,-0.04
2023-03-04T03:45:55.399Z,-0.05
2023-03-04T03:48:22.088Z,-0.04
2023-03-04T03:50:48.675Z,-0.04
2023-03-04T03:53:15.282Z,-0.03
2023-03-04T03:55:41.952Z,0.01
2023-03-04T03:58:08.550Z,0.01
2023-03-04T04:00:35.130Z,-0.02
2023-03-04T04:03:02.100Z,-0.04
2023-03-04T04:05:28.730Z,-0.03
2023-03-04T04:07:56.059Z,-0.03
2023-03-04T04:10:22.650Z,0.03
2023-03-04T04:12:49.312Z,0.09
2023-03-04T04:15:15.888Z,0.14
2023-03-04T04:17:42.548Z,0.15
2023-03-04T04:20:09.729Z,0.14
2023-03-04T04:22:36.323Z,0.10
2023-03-04T04:25:03.072Z,0.14
2023-03-04T04:27:29.734Z,0.16
2023-03-04T04:29:56.284Z,0.19
2023-03-04T04:32:22.926Z,0.25
2023-03-04T04:34:49.630Z,0.31
2023-03-04T04:37:16.239Z,0.31
2023-03-04T04:39:42.824Z,0.31
2023-03-04T04:42:11.258Z,0.28
2023-03-04T04:44:39.098Z,0.26
2023-03-04T04:47:07.261Z,0.24
2023-03-04T04:49:34.292Z,0.23
2023-03-04T04:52:00.938Z,0.23
2023-03-04T04:54:27.589Z,0.24
2023-03-04T04:56:54.132Z,0.22
2023-03-04T04:59:20.768Z,0.24
2023-03-04T05:01:47.673Z,0.27
2023-03-04T05:04:14.312Z,0.27
2023-03-04T05:06:41.275Z,0.26
2023-03-04T05:09:07.993Z,0.30
2023-03-04T05:11:34.768Z,0.33
2023-03-04T05:14:01.426Z,0.39
2023-03-04T05:16:27.968Z,0.38
2023-03-04T05:18:54.563Z,0.38
2023-03-04T05:21:21.323Z,0.41
2023-03-04T05:23:47.955Z,0.38
2023-03-04T05:26:17.243Z,0.36
2023-03-04T05:28:44.640Z,0.43
2023-03-04T05:31:11.924Z,0.46
2023-03-04T05:33:38.580Z,0.48
2023-03-04T05:36:06.644Z,0.46
2023-03-04T05:38:33.333Z,0.48
2023-03-04T05:41:03.523Z,0.45
2023-03-04T05:43:31.629Z,0.40
2023-03-04T05:45:58.213Z,0.43
2023-03-04T05:48:24.864Z,0.45
2023-03-04T05:51:00.452Z,0.43
2023-03-04T05:53:28.552Z,0.47
2023-03-04T05:55:55.882Z,0.49
2023-03-04T05:58:23.027Z,0.48
2023-03-04T06:00:49.636Z,0.48
2023-03-04T06:03:18.603Z,0.49
2023-03-04T06:05:45.297Z,0.52
2023-03-04T06:08:12.370Z,0.53
2023-03-04T06:10:40.935Z,0.53
2023-03-04T06:13:08.387Z,0.53
2023-03-04T06:15:35.044Z,0.56
2023-03-04T06:18:02.176Z,0.61
2023-03-04T06:20:28.847Z,0.56
2023-03-04T06:22:56.605Z,0.56
2023-03-04T06:25:23.313Z,0.60
2023-03-04T06:27:50.889Z,0.61
2023-03-04T06:30:18.549Z,0.62
2023-03-04T06:32:46.130Z,0.62
2023-03-04T06:35:14.533Z,0.64
2023-03-04T06:37:41.232Z,0.68
2023-03-04T06:40:09.300Z,0.70
2023-03-04T06:42:36.568Z,0.84
2023-03-04T06:45:04.426Z,0.90
2023-03-04T06:47:31.002Z,0.89
2023-03-04T06:49:57.589Z,0.91
2023-03-04T06:52:24.263Z,0.88
2023-03-04T06:54:50.876Z,0.88
2023-03-04T06:57:17.549Z,0.95
2023-03-04T06:59:44.151Z,0.91
2023-03-04T07:02:21.458Z,0.96
2023-03-04T07:04:48.189Z,1.03
2023-03-04T07:07:14.766Z,0.99
2023-03-04T07:09:41.400Z,1.12
2023-03-04T07:12:08.074Z,1.05
2023-03-04T07:14:34.678Z,1.06
2023-03-04T07:17:01.369Z,1.06
2023-03-04T07:19:28.016Z,1.10
2023-03-04T07:21:54.567Z,1.11
2023-03-04T07:24:21.208Z,1.13
2023-03-04T07:26:47.757Z,1.21
2023-03-04T07:29:14.423Z,1.26
2023-03-04T07:31:41.110Z,1.39
2023-03-04T07:34:15.154Z,1.37
2023-03-04T07:36:42.356Z,1.36
2023-03-04T07:39:11.422Z,1.47
2023-03-04T07:41:38.084Z,1.45
2023-03-04T07:44:06.697Z,1.42
2023-03-04T07:46:33.911Z,1.49
2023-03-04T07:49:00.670Z,1.48
2023-03-04T07:51:27.933Z,1.55
2023-03-04T07:53:57.937Z,1.55
2023-03-04T07:56:27.114Z,1.57
2023-03-04T07:58:54.008Z,1.57
2023-03-04T08:01:23.918Z,1.61
2023-03-04T08:03:50.673Z,1.66
2023-03-04T08:06:19.096Z,1.65
2023-03-04T08:08:46.288Z,1.73
2023-03-04T08:11:15.749Z,1.82
2023-03-04T08:13:42.622Z,1.77
2023-03-04T08:16:12.636Z,1.86
2023-03-04T08:18:40.537Z,1.83
2023-03-04T08:21:10.341Z,1.93
2023-03-04T08:23:37.170Z,1.93
2023-03-04T08:26:09.646Z,1.96
2023-03-04T08:28:36.522Z,1.95
2023-03-04T08:31:03.752Z,1.98
2023-03-04T08:33:31.381Z,2.01
2023-03-04T08:35:58.103Z,2.04
2023-03-04T08:38:24.775Z,2.01
2023-03-04T08:40:57.698Z,2.09
2023-03-04T08:43:25.863Z,2.07
2023-03-04T08:45:54.331Z,2.10
2023-03-04T08:48:21.850Z,2.17
2023-03-04T08:50:49.302Z,2.19
2023-03-04T08:53:16.681Z,2.23
2023-03-04T08:55:43.529Z,2.18
2023-03-04T08:58:10.922Z,2.19
2023-03-04T09:00:42.957Z,2.26
2023-03-04T09:03:12.279Z,2.25
2023-03-04T09:05:39.175Z,2.23
2023-03-04T09:08:06.214Z,2.31
2023-03-04T09:10:32.900Z,2.30
2023-03-04T09:12:59.544Z,2.40
2023-03-04T09:15:26.164Z,2.41
2023-03-04T09:17:53.027Z,2.32
2023-03-04T09:20:21.112Z,2.45
2023-03-04T09:22:47.678Z,2.42
2023-03-04T09:25:15.490Z,2.43
2023-03-04T09:27:42.134Z,2.47
2023-03-04T09:30:10.223Z,2.51
2023-03-04T09:32:36.974Z,2.58
2023-03-04T09:35:04.009Z,2.51
2023-03-04T09:37:30.662Z,2.67
2023-03-04T09:39:57.274Z,2.69
2023-03-04T09:42:51.963Z,2.75
2023-03-04T09:45:24.940Z,2.73
2023-03-04T09:47:54.252Z,2.78
2023-03-04T09:50:21.985Z,2.76
2023-03-04T09:53:12.875Z,2.78
2023-03-04T09:55:42.259Z,2.75
2023-03-04T09:58:36.935Z,2.86
2023-03-04T10:01:41.676Z,2.79
2023-03-04T10:04:41.428Z,2.78
2023-03-04T10:07:20.425Z,2.77
2023-03-04T10:10:04.965Z,2.86
2023-03-04T10:12:36.684Z,2.93
2023-03-04T10:15:26.956Z,2.90
2023-03-04T10:18:02.734Z,2.90
2023-03-04T10:20:44.157Z,2.94
2023-03-04T10:23:18.185Z,2.90
2023-03-04T10:25:47.067Z,3.03
2023-03-04T10:28:20.205Z,2.96
2023-03-04T10:31:05.002Z,3.09
2023-03-04T10:33:37.231Z,2.99
2023-03-04T10:36:06.933Z,3.00
2023-03-04T10:38:40.174Z,2.96
2023-03-04T10:41:20.428Z,3.06
2023-03-04T10:44:00.484Z,3.27
2023-03-04T10:46:27.278Z,3.27
2023-03-04T10:48:55.054Z,3.24
2023-03-04T10:51:23.263Z,3.28
2023-03-04T10:54:10.182Z,3.10
2023-03-04T10:56:46.366Z,3.12
2023-03-04T10:59:33.920Z,3.15
2023-03-04T11:02:13.379Z,3.12
2023-03-04T11:04:40.215Z,3.18
2023-03-04T11:07:11.028Z,3.23
2023-03-04T11:09:40.162Z,3.25
2023-03-04T11:12:15.377Z,3.29
2023-03-04T11:14:49.128Z,3.35
2023-03-04T11:17:45.541Z,3.24
2023-03-04T11:20:38.026Z,3.37
2023-03-04T11:23:11.319Z,2.96
2023-03-04T11:25:44.028Z,3.21
2023-03-04T11:28:26.712Z,3.22
2023-03-04T11:31:10.147Z,3.28
2023-03-04T11:33:45.539Z,3.35
2023-03-04T11:36:12.137Z,3.39
2023-03-04T11:38:46.892Z,3.40
2023-03-04T11:41:20.535Z,3.72
2023-03-04T11:43:47.922Z,3.76
2023-03-04T11:46:50.845Z,3.88
2023-03-04T11:49:58.927Z,4.14
2023-03-04T11:52:40.016Z,4.51
2023-03-04T11:55:09.464Z,4.83
2023-03-04T11:57:47.819Z,5.13
2023-03-04T12:00:36.026Z,5.48
2023-03-04T12:03:44.383Z,5.61
2023-03-04T12:06:22.824Z,5.71
2023-03-04T12:09:17.295Z,5.62
2023-03-04T12:11:50.182Z,5.32
2023-03-04T12:14:25.538Z,5.19
2023-03-04T12:17:20.359Z,4.96
2023-03-04T12:20:08.744Z,4.71
2023-03-04T12:22:51.444Z,4.63
2023-03-04T12:25:33.764Z,4.50
2023-03-04T12:28:22.976Z,4.46
2023-03-04T12:31:07.786Z,4.29
2023-03-04T12:33:51.375Z,4.28
2023-03-04T12:36:56.604Z,4.30
2023-03-04T12:39:37.981Z,4.28
2023-03-04T12:42:17.192Z,4.32
2023-03-04T12:45:07.273Z,4.49
2023-03-04T12:48:15.053Z,4.61
2023-03-04T12:51:04.921Z,4.66
2023-03-04T12:54:23.954Z,4.76
2023-03-04T12:57:00.910Z,4.70
2023-03-04T12:59:34.303Z,4.59
2023-03-04T13:02:10.069Z,4.80
2023-03-04T13:05:14.149Z,4.88
2023-03-04T13:08:19.906Z,4.79
2023-03-04T13:10:46.566Z,4.95
2023-03-04T13:13:42.473Z,4.95
2023-03-04T13:16:11.964Z,4.93
2023-03-04T13:18:39.557Z,4.81
2023-03-04T13:21:12.252Z,4.95
2023-03-04T13:23:39.658Z,5.03
2023-03-04T13:26:10.241Z,4.91
2023-03-04T13:28:37.417Z,5.03
2023-03-04T13:31:09.754Z,4.99
2023-03-04T13:33:36.350Z,4.93
2023-03-04T13:36:25.608Z,4.72
2023-03-04T13:39:17.006Z,4.62
2023-03-04T13:41:49.922Z,4.90
2023-03-04T13:44:51.768Z,5.00
2023-03-04T13:47:21.422Z,5.02
2023-03-04T13:49:48.416Z,5.03
2023-03-04T13:52:44.356Z,4.93
2023-03-04T13:55:33.274Z,4.86
2023-03-04T13:58:00.616Z,4.76
2023-03-04T14:00:28.776Z,4.77
2023-03-04T14:02:55.586Z,4.71
2023-03-04T14:05:22.222Z,4.87
2023-03-04T14:07:48.923Z,4.98
2023-03-04T14:10:24.802Z,4.92
2023-03-04T14:12:57.647Z,4.95
2023-03-04T14:15:29.364Z,4.78
2023-03-04T14:18:05.299Z,4.87
2023-03-04T14:20:37.504Z,4.74
2023-03-04T14:23:23.563Z,4.80
2023-03-04T14:25:50.367Z,4.81
2023-03-04T14:28:20.803Z,4.80
2023-03-04T14:31:01.917Z,4.74
2023-03-04T14:33:33.598Z,4.48
2023-03-04T14:36:04.697Z,4.57
2023-03-04T14:38:38.600Z,4.41
2023-03-04T14:41:19.347Z,4.45
2023-03-04T14:44:08.138Z,4.49
2023-03-04T14:46:41.157Z,4.44
2023-03-04T14:49:17.204Z,4.44
2023-03-04T14:51:53.543Z,4.49
2023-03-04T14:54:34.228Z,4.49
2023-03-04T14:57:27.535Z,4.46
2023-03-04T14:59:55.603Z,4.41
2023-03-04T15:02:38.937Z,4.38
2023-03-04T15:05:25.450Z,4.42
2023-03-04T15:07:59.536Z,4.42
2023-03-04T15:10:30.158Z,4.45
2023-03-04T15:13:03.355Z,4.53
2023-03-04T15:15:39.807Z,4.58
2023-03-04T15:18:28.439Z,4.59
2023-03-04T15:21:00.725Z,4.65
2023-03-04T15:23:30.274Z,4.66
2023-03-04T15:26:02.096Z,4.65
2023-03-04T15:28:37.119Z,4.63
2023-03-04T15:31:14.797Z,4.64
2023-03-04T15:33:41.474Z,4.59
2023-03-04T15:36:14.139Z,4.54
2023-03-04T15:38:43.675Z,4.49
2023-03-04T15:41:12.348Z,4.44
2023-03-04T15:43:39.380Z,4.43
2023-03-04T15:46:06.665Z,4.30
2023-03-04T15:48:33.417Z,4.32
2023-03-04T15:51:02.317Z,4.33
2023-03-04T15:53:36.588Z,4.32
2023-03-04T15:56:08.137Z,4.27
2023-03-04T15:58:35.432Z,4.25
2023-03-04T16:01:02.649Z,4.30
2023-03-04T16:03:29.439Z,4.30
2023-03-04T16:05:57.176Z,4.27
2023-03-04T16:08:27.386Z,4.25
2023-03-04T16:10:54.820Z,4.20
2023-03-04T16:13:23.883Z,4.14
2023-03-04T16:15:50.883Z,4.11
2023-03-04T16:18:18.095Z,4.08
2023-03-04T16:20:47.681Z,4.09
2023-03-04T16:23:18.762Z,4.05
2023-03-04T16:25:47.137Z,4.03
2023-03-04T16:28:14.070Z,3.99
2023-03-04T16:30:41.690Z,4.01
2023-03-04T16:33:08.970Z,4.00
2023-03-04T16:35:37.732Z,3.98
2023-03-04T16:38:07.288Z,3.99
2023-03-04T16:40:33.953Z,3.95
2023-03-04T16:43:00.537Z,3.92
2023-03-04T16:45:30.262Z,3.92
2023-03-04T16:47:57.216Z,3.90
2023-03-04T16:50:27.380Z,3.91
2023-03-04T16:52:55.710Z,3.92
2023-03-04T16:55:28.205Z,3.92
2023-03-04T16:57:56.155Z,3.88
2023-03-04T17:00:24.059Z,3.84
2023-03-04T17:03:08.451Z,3.84
2023-03-04T17:05:35.089Z,3.83
2023-03-04T17:08:01.694Z,3.80
2023-03-04T17:10:28.364Z,3.79
2023-03-04T17:12:54.997Z,3.76
2023-03-04T17:15:21.682Z,3.75
2023-03-04T17:17:48.442Z,3.76
2023-03-04T17:20:17.234Z,3.76
2023-03-04T17:22:44.478Z,3.75
2023-03-04T17:25:12.457Z,3.69
2023-03-04T17:27:39.358Z,3.69
2023-03-04T17:30:08.017Z,3.67
2023-03-04T17:32:35.677Z,3.68
2023-03-04T17:35:03.333Z,3.69
2023-03-04T17:37:29.978Z,3.67
2023-03-04T17:39:56.555Z,3.67
2023-03-04T17:42:23.144Z,3.63
2023-03-04T17:44:49.823Z,3.65
2023-03-04T17:47:17.207Z,3.60
2023-03-04T17:49:43.830Z,3.60
2023-03-04T17:52:11.186Z,3.58
2023-03-04T17:54:38.054Z,3.58
2023-03-04T17:57:04.709Z,3.56
2023-03-04T17:59:31.488Z,3.56
2023-03-04T18:01:58.197Z,3.56
2023-03-04T18:04:24.878Z,3.57
2023-03-04T18:06:51.457Z,3.55
2023-03-04T18:09:18.066Z,3.56
2023-03-04T18:11:44.906Z,3.58
2023-03-04T18:14:12.760Z,3.58
2023-03-04T18:16:39.879Z,3.55
2023-03-04T18:19:06.481Z,3.58
2023-03-04T18:21:33.190Z,3.58
2023-03-04T18:24:00.034Z,3.57
2023-03-04T18:26:27.724Z,3.58
2023-03-04T18:28:55.422Z,3.59
2023-03-04T18:31:24.743Z,3.58
2023-03-04T18:33:51.722Z,3.59
2023-03-04T18:36:18.397Z,3.58
2023-03-04T18:38:45.048Z,3.61
2023-03-04T18:41:13.670Z,3.60
2023-03-04T18:43:40.765Z,3.61
2023-03-04T18:46:16.523Z,3.63
2023-03-04T18:48:49.657Z,3.64
2023-03-04T18:51:16.578Z,3.63
2023-03-04T18:53:43.148Z,3.61
2023-03-04T18:56:14.243Z,3.57
2023-03-04T18:58:44.247Z,3.58
2023-03-04T19:01:13.911Z,3.57
2023-03-04T19:03:41.791Z,3.58
2023-03-04T19:06:09.103Z,3.58
2023-03-04T19:08:35.891Z,3.55
2023-03-04T19:11:02.528Z,3.53
2023-03-04T19:13:30.705Z,3.51
2023-03-04T19:15:57.340Z,3.55
2023-03-04T19:18:24.782Z,3.50
2023-03-04T19:20:51.456Z,3.44
2023-03-04T19:23:18.144Z,3.39
2023-03-04T19:25:45.031Z,3.39
2023-03-04T19:28:12.129Z,3.38
2023-03-04T19:30:40.125Z,3.37
2023-03-04T19:33:07.173Z,3.35
2023-03-04T19:35:34.181Z,3.32
2023-03-04T19:38:01.070Z,3.32
2023-03-04T19:40:28.410Z,3.33
2023-03-04T19:42:56.680Z,3.33
2023-03-04T19:45:24.854Z,3.35
2023-03-04T19:47:51.951Z,3.29
2023-03-04T19:50:19.242Z,3.28
2023-03-04T19:52:45.964Z,3.25
2023-03-04T19:55:15.075Z,3.28
2023-03-04T19:57:44.824Z,3.28
2023-03-04T20:00:12.679Z,3.26
2023-03-04T20:02:39.991Z,3.28
2023-03-04T20:05:07.221Z,3.29
2023-03-04T20:07:33.833Z,3.19
2023-03-04T20:10:00.446Z,3.21
2023-03-04T20:12:27.313Z,3.27
2023-03-04T20:14:54.010Z,3.30
2023-03-04T20:17:20.750Z,3.23
2023-03-04T20:19:47.482Z,3.29
2023-03-04T20:22:14.089Z,3.25
2023-03-04T20:24:40.689Z,3.14
2023-03-04T20:27:07.296Z,3.16
2023-03-04T20:29:33.904Z,3.16
2023-03-04T20:32:01.431Z,3.13
2023-03-04T20:34:28.096Z,3.14
2023-03-04T20:36:54.692Z,3.13
2023-03-04T20:39:29.286Z,3.11
2023-03-04T20:41:59.528Z,3.10
2023-03-04T20:44:27.283Z,3.15
2023-03-04T20:46:53.896Z,3.10
2023-03-04T20:49:25.548Z,3.10
2023-03-04T20:52:03.346Z,3.11
2023-03-04T20:54:30.748Z,3.12
2023-03-04T20:56:57.567Z,3.15
2023-03-04T20:59:24.420Z,3.16
2023-03-04T21:01:52.400Z,3.14
2023-03-04T21:04:20.349Z,3.14
2023-03-04T21:06:51.683Z,3.15
2023-03-04T21:09:20.786Z,3.14
2023-03-04T21:11:48.734Z,3.16
2023-03-04T21:14:23.072Z,3.17
2023-03-04T21:16:53.416Z,3.18
2023-03-04T21:19:22.833Z,3.15
2023-03-04T21:21:50.748Z,3.15
2023-03-04T21:24:20.725Z,3.15
2023-03-04T21:26:48.053Z,3.10
2023-03-04T21:29:16.569Z,3.08
2023-03-04T21:31:53.422Z,3.04
2023-03-04T21:34:28.241Z,3.06
2023-03-04T21:36:54.837Z,3.05
2023-03-04T21:39:24.133Z,3.03
2023-03-04T21:41:51.353Z,2.99
2023-03-04T21:44:28.015Z,2.98
2023-03-04T21:46:59.937Z,3.02
2023-03-04T21:49:26.772Z,3.03
2023-03-04T21:51:53.506Z,3.05
2023-03-04T21:54:20.316Z,3.05
2023-03-04T21:56:46.947Z,3.03
2023-03-04T21:59:14.634Z,3.05
2023-03-04T22:01:41.743Z,3.04
2023-03-04T22:04:08.948Z,3.06
2023-03-04T22:06:35.799Z,3.01
2023-03-04T22:09:04.699Z,2.99
2023-03-04T22:11:32.220Z,2.98
2023-03-04T22:14:01.940Z,2.98
2023-03-04T22:16:29.117Z,3.00
2023-03-04T22:18:55.863Z,2.99
2023-03-04T22:21:23.489Z,3.00
2023-03-04T22:23:50.325Z,3.01
2023-03-04T22:26:21.055Z,3.03
2023-03-04T22:28:47.801Z,3.03
2023-03-04T22:31:16.158Z,3.03
2023-03-04T22:33:44.411Z,3.00
2023-03-04T22:36:12.721Z,2.96
2023-03-04T22:38:40.445Z,3.00
2023-03-04T22:41:14.483Z,2.99
2023-03-04T22:43:41.705Z,3.01
2023-03-04T22:46:24.639Z,3.00
2023-03-04T22:48:56.311Z,3.01
2023-03-04T22:51:23.411Z,3.00
2023-03-04T22:53:51.937Z,2.98
2023-03-04T22:56:19.773Z,2.96
2023-03-04T22:58:46.972Z,2.96
2023-03-04T23:01:16.734Z,2.92
2023-03-04T23:03:45.661Z,2.94
2023-03-04T23:06:18.197Z,2.93
2023-03-04T23:08:46.972Z,2.91
2023-03-04T23:11:16.881Z,2.93
2023-03-04T23:13:44.631Z,2.93
2023-03-04T23:16:13.773Z,2.94
2023-03-04T23:18:43.695Z,2.96
2023-03-04T23:21:13.939Z,2.98
2023-03-04T23:23:41.652Z,2.96
2023-03-04T23:26:21.174Z,2.89
2023-03-04T23:28:48.453Z,2.90
2023-03-04T23:31:15.870Z,2.89
2023-03-04T23:33:45.076Z,2.92
2023-03-04T23:36:15.225Z,2.91
2023-03-04T23:38:44.199Z,2.87
2023-03-04T23:41:13.950Z,2.80
2023-03-04T23:43:40.976Z,2.88
2023-03-04T23:46:09.366Z,2.86
2023-03-04T23:48:36.770Z,2.84
2023-03-04T23:51:03.941Z,2.83
2023-03-04T23:53:34.441Z,2.95
2023-03-04T23:56:01.093Z,2.90
2023-03-04T23:58:28.429Z,2.81
